sensor_id;sensor_type;location;lat;lon;timestamp;P1;durP1;ratioP1;P2;durP2;ratioP2
11568;SDS011;5840;46.894;15.542;2024-03-23T00:54:50;7.47;;;6.87;;
11568;SDS011;5840;46.894;15.542;2024-03-23T01:02:19;7.00;;;6.40;;
11568;SDS011;5840;46.894;15.542;2024-03-23T01:04:45;6.63;;;6.03;;
11568;SDS011;5840;46.894;15.542;2024-03-23T01:07:11;7.37;;;6.77;;
11568;SDS011;5840;46.894;15.542;2024-03-23T01:09:38;7.23;;;6.53;;
11568;SDS011;5840;46.894;15.542;2024-03-23T01:12:04;6.37;;;5.87;;
11568;SDS011;5840;46.894;15.542;2024-03-23T01:14:30;7.33;;;6.70;;
11568;SDS011;5840;46.894;15.542;2024-03-23T01:16:56;7.57;;;6.97;;
11568;SDS011;5840;46.894;15.542;2024-03-23T01:19:24;8.20;;;7.50;;
11568;SDS011;5840;46.894;15.542;2024-03-23T01:29:14;7.17;;;6.47;;
11568;SDS011;5840;46.894;15.542;2024-03-23T01:31:40;7.07;;;6.47;;
11568;SDS011;5840;46.894;15.542;2024-03-23T01:34:06;9.33;;;8.00;;
11568;SDS011;5840;46.894;15.542;2024-03-23T01:36:32;8.13;;;7.20;;
11568;SDS011;5840;46.894;15.542;2024-03-23T01:38:59;10.23;;;8.47;;
11568;SDS011;5840;46.894;15.542;2024-03-23T01:41:25;9.17;;;7.90;;
11568;SDS011;5840;46.894;15.542;2024-03-23T01:43:51;8.03;;;7.23;;
11568;SDS011;5840;46.894;15.542;2024-03-23T01:46:19;7.23;;;6.63;;
11568;SDS011;5840;46.894;15.542;2024-03-23T01:53:48;7.30;;;6.70;;
11568;SDS011;5840;46.894;15.542;2024-03-23T01:56:14;8.00;;;7.30;;
11568;SDS011;5840;46.894;15.542;2024-03-23T01:58:41;7.40;;;6.73;;
11568;SDS011;5840;46.894;15.542;2024-03-23T02:01:07;7.80;;;7.10;;
11568;SDS011;5840;46.894;15.542;2024-03-23T02:03:33;7.80;;;7.00;;
11568;SDS011;5840;46.894;15.542;2024-03-23T02:05:59;7.97;;;7.33;;
11568;SDS011;5840;46.894;15.542;2024-03-23T02:08:25;8.07;;;7.37;;
11568;SDS011;5840;46.894;15.542;2024-03-23T02:10:52;7.57;;;6.90;;
11568;SDS011;5840;46.894;15.542;2024-03-23T02:18:22;7.57;;;6.80;;
11568;SDS011;5840;46.894;15.542;2024-03-23T02:20:48;7.63;;;7.03;;
11568;SDS011;5840;46.894;15.542;2024-03-23T02:23:15;7.93;;;7.23;;
11568;SDS011;5840;46.894;15.542;2024-03-23T02:25:43;8.00;;;7.17;;
11568;SDS011;5840;46.894;15.542;2024-03-23T02:30:35;9.13;;;8.23;;
11568;SDS011;5840;46.894;15.542;2024-03-23T02:33:01;8.30;;;7.50;;
11568;SDS011;5840;46.894;15.542;2024-03-23T02:35:27;8.23;;;7.43;;
11568;SDS011;5840;46.894;15.542;2024-03-23T02:42:56;8.07;;;7.40;;
11568;SDS011;5840;46.894;15.542;2024-03-23T02:45:22;8.63;;;7.93;;
11568;SDS011;5840;46.894;15.542;2024-03-23T02:47:48;8.67;;;7.53;;
11568;SDS011;5840;46.894;15.542;2024-03-23T02:50:17;8.33;;;7.57;;
11568;SDS011;5840;46.894;15.542;2024-03-23T02:52:43;8.10;;;7.40;;
11568;SDS011;5840;46.894;15.542;2024-03-23T02:55:09;8.30;;;7.53;;
11568;SDS011;5840;46.894;15.542;2024-03-23T02:57:35;8.40;;;7.63;;
11568;SDS011;5840;46.894;15.542;2024-03-23T03:00:02;8.13;;;7.43;;
11568;SDS011;5840;46.894;15.542;2024-03-23T03:07:32;8.00;;;7.30;;
11568;SDS011;5840;46.894;15.542;2024-03-23T03:09:58;7.47;;;6.90;;
11568;SDS011;5840;46.894;15.542;2024-03-23T03:12:24;9.00;;;8.10;;
11568;SDS011;5840;46.894;15.542;2024-03-23T03:14:50;8.00;;;7.30;;
11568;SDS011;5840;46.894;15.542;2024-03-23T03:17:16;9.40;;;8.50;;
11568;SDS011;5840;46.894;15.542;2024-03-23T03:19:42;9.33;;;8.47;;
11568;SDS011;5840;46.894;15.542;2024-03-23T03:22:08;8.77;;;8.07;;
11568;SDS011;5840;46.894;15.542;2024-03-23T03:24:35;9.07;;;8.27;;
11568;SDS011;5840;46.894;15.542;2024-03-23T03:32:05;9.40;;;8.60;;
11568;SDS011;5840;46.894;15.542;2024-03-23T03:34:31;8.50;;;7.80;;
11568;SDS011;5840;46.894;15.542;2024-03-23T03:36:57;8.90;;;8.00;;
11568;SDS011;5840;46.894;15.542;2024-03-23T03:39:24;8.90;;;8.03;;
11568;SDS011;5840;46.894;15.542;2024-03-23T03:41:50;9.13;;;8.43;;
11568;SDS011;5840;46.894;15.542;2024-03-23T03:44:17;9.67;;;8.77;;
11568;SDS011;5840;46.894;15.542;2024-03-23T03:46:43;10.13;;;9.23;;
11568;SDS011;5840;46.894;15.542;2024-03-23T03:49:10;9.40;;;8.60;;
11568;SDS011;5840;46.894;15.542;2024-03-23T03:59:04;10.30;;;8.73;;
11568;SDS011;5840;46.894;15.542;2024-03-23T04:01:31;10.67;;;9.67;;
11568;SDS011;5840;46.894;15.542;2024-03-23T04:03:57;10.43;;;9.63;;
11568;SDS011;5840;46.894;15.542;2024-03-23T04:06:23;10.70;;;9.70;;
11568;SDS011;5840;46.894;15.542;2024-03-23T04:08:49;10.80;;;9.83;;
11568;SDS011;5840;46.894;15.542;2024-03-23T04:11:15;9.97;;;9.17;;
11568;SDS011;5840;46.894;15.542;2024-03-23T04:13:41;9.57;;;8.77;;
11568;SDS011;5840;46.894;15.542;2024-03-23T04:16:08;10.27;;;9.30;;
11568;SDS011;5840;46.894;15.542;2024-03-23T04:26:02;9.67;;;8.77;;
11568;SDS011;5840;46.894;15.542;2024-03-23T04:28:30;10.23;;;9.23;;
11568;SDS011;5840;46.894;15.542;2024-03-23T04:30:56;10.20;;;9.23;;
11568;SDS011;5840;46.894;15.542;2024-03-23T04:33:22;10.00;;;9.17;;
11568;SDS011;5840;46.894;15.542;2024-03-23T04:35:48;10.43;;;9.50;;
11568;SDS011;5840;46.894;15.542;2024-03-23T04:38:15;10.30;;;9.33;;
11568;SDS011;5840;46.894;15.542;2024-03-23T04:40:42;10.00;;;8.87;;
11568;SDS011;5840;46.894;15.542;2024-03-23T04:43:08;10.53;;;9.43;;
11568;SDS011;5840;46.894;15.542;2024-03-23T04:53:04;10.73;;;9.77;;
11568;SDS011;5840;46.894;15.542;2024-03-23T04:55:30;10.07;;;9.27;;
11568;SDS011;5840;46.894;15.542;2024-03-23T04:57:56;10.60;;;9.60;;
11568;SDS011;5840;46.894;15.542;2024-03-23T05:00:23;9.37;;;8.57;;
11568;SDS011;5840;46.894;15.542;2024-03-23T05:02:49;9.77;;;8.87;;
11568;SDS011;5840;46.894;15.542;2024-03-23T05:05:16;10.20;;;9.27;;
11568;SDS011;5840;46.894;15.542;2024-03-23T05:07:41;9.43;;;8.63;;
11568;SDS011;5840;46.894;15.542;2024-03-23T05:10:09;9.83;;;9.03;;
11568;SDS011;5840;46.894;15.542;2024-03-23T05:17:34;9.20;;;8.40;;
11568;SDS011;5840;46.894;15.542;2024-03-23T05:20:01;10.27;;;9.27;;
11568;SDS011;5840;46.894;15.542;2024-03-23T05:22:27;10.70;;;9.80;;
11568;SDS011;5840;46.894;15.542;2024-03-23T05:24:54;10.37;;;9.47;;
11568;SDS011;5840;46.894;15.542;2024-03-23T05:27:19;10.73;;;9.83;;
11568;SDS011;5840;46.894;15.542;2024-03-23T05:29:46;11.33;;;10.23;;
11568;SDS011;5840;46.894;15.542;2024-03-23T05:32:12;10.27;;;9.40;;
11568;SDS011;5840;46.894;15.542;2024-03-23T05:34:39;10.63;;;9.53;;
11568;SDS011;5840;46.894;15.542;2024-03-23T05:44:34;10.40;;;9.47;;
11568;SDS011;5840;46.894;15.542;2024-03-23T05:47:00;9.87;;;9.07;;
11568;SDS011;5840;46.894;15.542;2024-03-23T05:49:26;10.10;;;9.20;;
11568;SDS011;5840;46.894;15.542;2024-03-23T05:51:52;11.07;;;10.07;;
11568;SDS011;5840;46.894;15.542;2024-03-23T05:54:20;10.33;;;9.43;;
11568;SDS011;5840;46.894;15.542;2024-03-23T05:56:46;10.63;;;9.73;;
11568;SDS011;5840;46.894;15.542;2024-03-23T05:59:12;9.80;;;8.90;;
11568;SDS011;5840;46.894;15.542;2024-03-23T06:01:39;10.50;;;9.50;;
11568;SDS011;5840;46.894;15.542;2024-03-23T06:09:08;10.10;;;9.20;;
11568;SDS011;5840;46.894;15.542;2024-03-23T06:11:34;10.37;;;9.47;;
11568;SDS011;5840;46.894;15.542;2024-03-23T06:14:00;11.00;;;9.57;;
11568;SDS011;5840;46.894;15.542;2024-03-23T06:16:27;10.80;;;9.90;;
11568;SDS011;5840;46.894;15.542;2024-03-23T06:18:53;10.50;;;9.50;;
11568;SDS011;5840;46.894;15.542;2024-03-23T06:21:19;10.27;;;9.30;;
11568;SDS011;5840;46.894;15.542;2024-03-23T06:23:45;10.93;;;10.03;;
11568;SDS011;5840;46.894;15.542;2024-03-23T06:26:16;8.43;;;7.73;;
11568;SDS011;5840;46.894;15.542;2024-03-23T06:36:11;9.37;;;8.63;;
11568;SDS011;5840;46.894;15.542;2024-03-23T06:38:37;8.73;;;8.03;;
11568;SDS011;5840;46.894;15.542;2024-03-23T06:41:03;9.37;;;8.57;;
11568;SDS011;5840;46.894;15.542;2024-03-23T06:43:30;10.47;;;9.57;;
11568;SDS011;5840;46.894;15.542;2024-03-23T06:45:56;12.37;;;11.27;;
11568;SDS011;5840;46.894;15.542;2024-03-23T06:48:22;11.27;;;10.27;;
11568;SDS011;5840;46.894;15.542;2024-03-23T06:50:48;11.33;;;10.27;;
11568;SDS011;5840;46.894;15.542;2024-03-23T06:53:15;10.17;;;9.37;;
11568;SDS011;5840;46.894;15.542;2024-03-23T07:00:44;9.00;;;8.13;;
11568;SDS011;5840;46.894;15.542;2024-03-23T07:03:10;8.63;;;8.03;;
11568;SDS011;5840;46.894;15.542;2024-03-23T07:05:36;9.70;;;8.90;;
11568;SDS011;5840;46.894;15.542;2024-03-23T07:08:02;9.60;;;8.80;;
11568;SDS011;5840;46.894;15.542;2024-03-23T07:10:29;8.50;;;7.30;;
11568;SDS011;5840;46.894;15.542;2024-03-23T07:12:55;8.40;;;7.70;;
11568;SDS011;5840;46.894;15.542;2024-03-23T07:15:21;7.80;;;7.10;;
11568;SDS011;5840;46.894;15.542;2024-03-23T07:17:48;7.60;;;7.00;;
11568;SDS011;5840;46.894;15.542;2024-03-23T07:27:38;7.60;;;7.00;;
11568;SDS011;5840;46.894;15.542;2024-03-23T07:30:04;7.57;;;6.93;;
11568;SDS011;5840;46.894;15.542;2024-03-23T07:32:31;8.37;;;7.57;;
11568;SDS011;5840;46.894;15.542;2024-03-23T07:34:57;7.73;;;7.10;;
11568;SDS011;5840;46.894;15.542;2024-03-23T07:37:23;8.17;;;7.57;;
11568;SDS011;5840;46.894;15.542;2024-03-23T07:39:50;7.30;;;6.70;;
11568;SDS011;5840;46.894;15.542;2024-03-23T07:42:17;7.20;;;6.70;;
11568;SDS011;5840;46.894;15.542;2024-03-23T07:44:44;8.17;;;7.47;;
11568;SDS011;5840;46.894;15.542;2024-03-23T07:52:14;8.17;;;7.47;;
11568;SDS011;5840;46.894;15.542;2024-03-23T07:54:40;8.40;;;7.70;;
11568;SDS011;5840;46.894;15.542;2024-03-23T07:57:06;8.33;;;7.67;;
11568;SDS011;5840;46.894;15.542;2024-03-23T07:59:32;8.10;;;7.43;;
11568;SDS011;5840;46.894;15.542;2024-03-23T08:01:59;8.80;;;8.00;;
11568;SDS011;5840;46.894;15.542;2024-03-23T08:04:27;7.27;;;6.77;;
11568;SDS011;5840;46.894;15.542;2024-03-23T08:06:53;8.80;;;7.90;;
11568;SDS011;5840;46.894;15.542;2024-03-23T08:09:20;8.20;;;7.60;;
11568;SDS011;5840;46.894;15.542;2024-03-23T08:19:16;9.43;;;8.57;;
11568;SDS011;5840;46.894;15.542;2024-03-23T08:21:43;9.03;;;8.20;;
11568;SDS011;5840;46.894;15.542;2024-03-23T08:24:08;8.70;;;7.87;;
11568;SDS011;5840;46.894;15.542;2024-03-23T08:26:35;9.03;;;8.13;;
11568;SDS011;5840;46.894;15.542;2024-03-23T08:29:02;9.10;;;8.20;;
11568;SDS011;5840;46.894;15.542;2024-03-23T08:31:29;8.70;;;7.90;;
11568;SDS011;5840;46.894;15.542;2024-03-23T08:33:55;9.03;;;8.23;;
11568;SDS011;5840;46.894;15.542;2024-03-23T08:36:21;12.40;;;8.27;;
11568;SDS011;5840;46.894;15.542;2024-03-23T08:46:11;8.50;;;7.80;;
11568;SDS011;5840;46.894;15.542;2024-03-23T08:48:39;8.80;;;7.97;;
11568;SDS011;5840;46.894;15.542;2024-03-23T08:51:08;8.77;;;8.03;;
11568;SDS011;5840;46.894;15.542;2024-03-23T08:53:35;9.50;;;8.63;;
11568;SDS011;5840;46.894;15.542;2024-03-23T08:56:02;9.80;;;8.67;;
11568;SDS011;5840;46.894;15.542;2024-03-23T08:58:31;9.37;;;8.47;;
11568;SDS011;5840;46.894;15.542;2024-03-23T09:01:02;9.33;;;8.43;;
11568;SDS011;5840;46.894;15.542;2024-03-23T09:03:30;9.60;;;8.67;;
11568;SDS011;5840;46.894;15.542;2024-03-23T09:11:00;10.40;;;9.47;;
11568;SDS011;5840;46.894;15.542;2024-03-23T09:13:31;11.07;;;10.10;;
11568;SDS011;5840;46.894;15.542;2024-03-23T09:15:57;10.30;;;9.50;;
11568;SDS011;5840;46.894;15.542;2024-03-23T09:18:23;10.50;;;9.70;;
11568;SDS011;5840;46.894;15.542;2024-03-23T09:20:49;10.33;;;9.30;;
11568;SDS011;5840;46.894;15.542;2024-03-23T09:23:15;11.30;;;10.33;;
11568;SDS011;5840;46.894;15.542;2024-03-23T09:25:41;11.33;;;10.33;;
11568;SDS011;5840;46.894;15.542;2024-03-23T09:28:09;10.67;;;9.77;;
11568;SDS011;5840;46.894;15.542;2024-03-23T09:35:37;12.33;;;9.10;;
11568;SDS011;5840;46.894;15.542;2024-03-23T09:38:04;10.57;;;9.40;;
11568;SDS011;5840;46.894;15.542;2024-03-23T09:40:30;14.50;;;10.20;;
11568;SDS011;5840;46.894;15.542;2024-03-23T09:42:57;12.30;;;9.97;;
11568;SDS011;5840;46.894;15.542;2024-03-23T09:45:26;9.83;;;9.00;;
11568;SDS011;5840;46.894;15.542;2024-03-23T09:47:53;10.23;;;9.03;;
11568;SDS011;5840;46.894;15.542;2024-03-23T09:50:20;10.03;;;9.20;;
11568;SDS011;5840;46.894;15.542;2024-03-23T09:52:47;9.63;;;8.83;;
11568;SDS011;5840;46.894;15.542;2024-03-23T10:02:37;9.03;;;8.17;;
11568;SDS011;5840;46.894;15.542;2024-03-23T10:05:04;9.77;;;8.83;;
11568;SDS011;5840;46.894;15.542;2024-03-23T10:07:44;9.10;;;8.30;;
11568;SDS011;5840;46.894;15.542;2024-03-23T10:10:11;9.43;;;8.57;;
11568;SDS011;5840;46.894;15.542;2024-03-23T10:12:39;10.33;;;9.47;;
11568;SDS011;5840;46.894;15.542;2024-03-23T10:15:13;9.90;;;8.90;;
11568;SDS011;5840;46.894;15.542;2024-03-23T10:17:43;9.13;;;8.40;;
11568;SDS011;5840;46.894;15.542;2024-03-23T10:20:10;9.27;;;8.57;;
11568;SDS011;5840;46.894;15.542;2024-03-23T10:27:39;9.77;;;8.97;;
11568;SDS011;5840;46.894;15.542;2024-03-23T10:30:08;8.87;;;8.17;;
11568;SDS011;5840;46.894;15.542;2024-03-23T10:32:35;8.07;;;7.47;;
11568;SDS011;5840;46.894;15.542;2024-03-23T10:35:13;8.93;;;8.23;;
11568;SDS011;5840;46.894;15.542;2024-03-23T10:37:40;8.30;;;7.50;;
11568;SDS011;5840;46.894;15.542;2024-03-23T10:40:08;8.43;;;7.63;;
11568;SDS011;5840;46.894;15.542;2024-03-23T10:42:37;7.63;;;7.00;;
11568;SDS011;5840;46.894;15.542;2024-03-23T10:45:05;7.93;;;7.13;;
11568;SDS011;5840;46.894;15.542;2024-03-23T10:52:35;7.47;;;6.93;;
11568;SDS011;5840;46.894;15.542;2024-03-23T10:55:02;8.27;;;7.67;;
11568;SDS011;5840;46.894;15.542;2024-03-23T10:57:33;7.47;;;6.87;;
11568;SDS011;5840;46.894;15.542;2024-03-23T11:00:04;8.90;;;7.23;;
11568;SDS011;5840;46.894;15.542;2024-03-23T11:02:31;7.43;;;6.83;;
11568;SDS011;5840;46.894;15.542;2024-03-23T11:04:57;7.90;;;7.27;;
11568;SDS011;5840;46.894;15.542;2024-03-23T11:07:32;7.70;;;7.00;;
11568;SDS011;5840;46.894;15.542;2024-03-23T11:10:00;7.67;;;7.07;;
11568;SDS011;5840;46.894;15.542;2024-03-23T11:17:30;7.20;;;6.60;;
11568;SDS011;5840;46.894;15.542;2024-03-23T11:19:57;7.90;;;7.20;;
11568;SDS011;5840;46.894;15.542;2024-03-23T11:22:40;7.43;;;6.77;;
11568;SDS011;5840;46.894;15.542;2024-03-23T11:25:16;6.87;;;6.27;;
11568;SDS011;5840;46.894;15.542;2024-03-23T11:27:43;7.07;;;6.47;;
11568;SDS011;5840;46.894;15.542;2024-03-23T11:30:11;6.33;;;5.87;;
11568;SDS011;5840;46.894;15.542;2024-03-23T11:32:39;6.83;;;6.13;;
11568;SDS011;5840;46.894;15.542;2024-03-23T11:35:06;6.10;;;5.60;;
11568;SDS011;5840;46.894;15.542;2024-03-23T11:42:38;5.87;;;5.07;;
11568;SDS011;5840;46.894;15.542;2024-03-23T11:45:07;5.17;;;4.77;;
11568;SDS011;5840;46.894;15.542;2024-03-23T11:47:33;4.90;;;4.50;;
11568;SDS011;5840;46.894;15.542;2024-03-23T11:49:59;5.33;;;4.70;;
11568;SDS011;5840;46.894;15.542;2024-03-23T11:52:25;4.23;;;3.93;;
11568;SDS011;5840;46.894;15.542;2024-03-23T11:54:51;4.63;;;4.33;;
11568;SDS011;5840;46.894;15.542;2024-03-23T11:57:28;4.27;;;3.90;;
11568;SDS011;5840;46.894;15.542;2024-03-23T11:59:56;4.97;;;4.50;;
11568;SDS011;5840;46.894;15.542;2024-03-23T12:07:25;3.50;;;3.20;;
11568;SDS011;5840;46.894;15.542;2024-03-23T12:10:02;4.33;;;4.03;;
11568;SDS011;5840;46.894;15.542;2024-03-23T12:12:28;4.03;;;3.73;;
11568;SDS011;5840;46.894;15.542;2024-03-23T12:15:01;3.97;;;3.60;;
11568;SDS011;5840;46.894;15.542;2024-03-23T12:17:28;5.87;;;3.63;;
11568;SDS011;5840;46.894;15.542;2024-03-23T12:19:54;3.70;;;3.40;;
11568;SDS011;5840;46.894;15.542;2024-03-23T12:22:20;5.27;;;4.20;;
11568;SDS011;5840;46.894;15.542;2024-03-23T12:24:48;4.07;;;3.77;;
11568;SDS011;5840;46.894;15.542;2024-03-23T12:32:17;5.17;;;4.47;;
11568;SDS011;5840;46.894;15.542;2024-03-23T12:34:45;4.40;;;4.00;;
11568;SDS011;5840;46.894;15.542;2024-03-23T12:37:12;4.40;;;4.00;;
11568;SDS011;5840;46.894;15.542;2024-03-23T12:39:38;4.70;;;3.97;;
11568;SDS011;5840;46.894;15.542;2024-03-23T12:42:05;4.63;;;4.13;;
11568;SDS011;5840;46.894;15.542;2024-03-23T12:44:31;4.43;;;4.13;;
11568;SDS011;5840;46.894;15.542;2024-03-23T12:46:57;4.40;;;4.10;;
11568;SDS011;5840;46.894;15.542;2024-03-23T12:49:24;4.20;;;3.90;;
11568;SDS011;5840;46.894;15.542;2024-03-23T12:56:54;4.20;;;3.90;;
11568;SDS011;5840;46.894;15.542;2024-03-23T12:59:21;4.57;;;4.07;;
11568;SDS011;5840;46.894;15.542;2024-03-23T13:01:47;4.10;;;3.80;;
11568;SDS011;5840;46.894;15.542;2024-03-23T13:04:13;5.00;;;4.60;;
11568;SDS011;5840;46.894;15.542;2024-03-23T13:06:39;4.60;;;4.20;;
11568;SDS011;5840;46.894;15.542;2024-03-23T13:09:05;4.70;;;4.30;;
11568;SDS011;5840;46.894;15.542;2024-03-23T13:11:31;4.83;;;4.53;;
11568;SDS011;5840;46.894;15.542;2024-03-23T13:13:58;5.37;;;4.87;;
11568;SDS011;5840;46.894;15.542;2024-03-23T13:23:51;5.40;;;4.90;;
11568;SDS011;5840;46.894;15.542;2024-03-23T13:26:17;5.70;;;5.30;;
11568;SDS011;5840;46.894;15.542;2024-03-23T13:28:43;5.17;;;4.70;;
11568;SDS011;5840;46.894;15.542;2024-03-23T13:31:10;5.30;;;4.87;;
11568;SDS011;5840;46.894;15.542;2024-03-23T13:33:36;5.43;;;5.00;;
11568;SDS011;5840;46.894;15.542;2024-03-23T13:36:02;5.70;;;5.20;;
11568;SDS011;5840;46.894;15.542;2024-03-23T13:38:28;7.00;;;4.83;;
11568;SDS011;5840;46.894;15.542;2024-03-23T13:40:56;7.53;;;4.90;;
11568;SDS011;5840;46.894;15.542;2024-03-23T13:50:47;5.57;;;4.93;;
11568;SDS011;5840;46.894;15.542;2024-03-23T13:53:13;4.83;;;4.40;;
11568;SDS011;5840;46.894;15.542;2024-03-23T13:55:46;5.53;;;5.10;;
11568;SDS011;5840;46.894;15.542;2024-03-23T13:58:13;5.77;;;4.73;;
11568;SDS011;5840;46.894;15.542;2024-03-23T14:00:39;6.17;;;5.67;;
11568;SDS011;5840;46.894;15.542;2024-03-23T14:03:05;5.83;;;5.37;;
11568;SDS011;5840;46.894;15.542;2024-03-23T14:05:31;5.53;;;4.87;;
11568;SDS011;5840;46.894;15.542;2024-03-23T14:07:58;5.50;;;5.10;;
11568;SDS011;5840;46.894;15.542;2024-03-23T14:17:53;5.57;;;4.80;;
11568;SDS011;5840;46.894;15.542;2024-03-23T14:20:20;5.60;;;5.10;;
11568;SDS011;5840;46.894;15.542;2024-03-23T14:22:46;5.07;;;4.67;;
11568;SDS011;5840;46.894;15.542;2024-03-23T14:25:12;5.33;;;4.93;;
11568;SDS011;5840;46.894;15.542;2024-03-23T14:27:38;5.43;;;4.87;;
11568;SDS011;5840;46.894;15.542;2024-03-23T14:30:05;5.47;;;4.97;;
11568;SDS011;5840;46.894;15.542;2024-03-23T14:32:32;5.23;;;4.90;;
11568;SDS011;5840;46.894;15.542;2024-03-23T14:35:00;4.70;;;4.40;;
11568;SDS011;5840;46.894;15.542;2024-03-23T14:44:54;5.50;;;5.00;;
11568;SDS011;5840;46.894;15.542;2024-03-23T14:47:21;5.40;;;5.00;;
11568;SDS011;5840;46.894;15.542;2024-03-23T14:49:47;4.87;;;4.20;;
11568;SDS011;5840;46.894;15.542;2024-03-23T14:52:15;4.97;;;4.57;;
11568;SDS011;5840;46.894;15.542;2024-03-23T14:54:41;5.37;;;4.97;;
11568;SDS011;5840;46.894;15.542;2024-03-23T14:57:08;5.03;;;4.70;;
11568;SDS011;5840;46.894;15.542;2024-03-23T14:59:35;4.40;;;4.10;;
11568;SDS011;5840;46.894;15.542;2024-03-23T15:02:04;4.63;;;4.07;;
11568;SDS011;5840;46.894;15.542;2024-03-23T15:09:33;4.70;;;4.40;;
11568;SDS011;5840;46.894;15.542;2024-03-23T15:12:00;4.63;;;4.20;;
11568;SDS011;5840;46.894;15.542;2024-03-23T15:14:26;4.23;;;3.93;;
11568;SDS011;5840;46.894;15.542;2024-03-23T15:16:52;4.40;;;4.07;;
11568;SDS011;5840;46.894;15.542;2024-03-23T15:19:19;4.97;;;4.53;;
11568;SDS011;5840;46.894;15.542;2024-03-23T15:21:45;4.43;;;4.13;;
11568;SDS011;5840;46.894;15.542;2024-03-23T15:24:11;5.47;;;4.57;;
11568;SDS011;5840;46.894;15.542;2024-03-23T15:29:16;5.50;;;4.57;;
11568;SDS011;5840;46.894;15.542;2024-03-23T15:31:43;4.07;;;3.77;;
11568;SDS011;5840;46.894;15.542;2024-03-23T15:34:10;4.93;;;4.53;;
11568;SDS011;5840;46.894;15.542;2024-03-23T15:36:36;4.17;;;3.87;;
11568;SDS011;5840;46.894;15.542;2024-03-23T15:39:03;4.50;;;4.20;;
11568;SDS011;5840;46.894;15.542;2024-03-23T15:41:29;4.40;;;4.10;;
11568;SDS011;5840;46.894;15.542;2024-03-23T15:43:56;4.73;;;4.33;;
11568;SDS011;5840;46.894;15.542;2024-03-23T15:46:23;4.80;;;4.50;;
11568;SDS011;5840;46.894;15.542;2024-03-23T15:56:18;7.13;;;2.87;;
11568;SDS011;5840;46.894;15.542;2024-03-23T15:58:44;8.03;;;2.27;;
11568;SDS011;5840;46.894;15.542;2024-03-23T16:01:11;3.70;;;1.97;;
11568;SDS011;5840;46.894;15.542;2024-03-23T16:03:37;4.13;;;1.67;;
11568;SDS011;5840;46.894;15.542;2024-03-23T16:06:03;3.47;;;1.30;;
11568;SDS011;5840;46.894;15.542;2024-03-23T16:08:31;2.50;;;1.27;;
11568;SDS011;5840;46.894;15.542;2024-03-23T16:10:59;4.00;;;1.00;;
11568;SDS011;5840;46.894;15.542;2024-03-23T16:13:26;4.93;;;1.20;;
11568;SDS011;5840;46.894;15.542;2024-03-23T16:20:59;1.00;;;1.00;;
11568;SDS011;5840;46.894;15.542;2024-03-23T16:23:26;1.10;;;0.90;;
11568;SDS011;5840;46.894;15.542;2024-03-23T16:25:52;3.57;;;0.90;;
11568;SDS011;5840;46.894;15.542;2024-03-23T16:28:23;1.90;;;0.80;;
11568;SDS011;5840;46.894;15.542;2024-03-23T16:30:56;2.27;;;0.83;;
11568;SDS011;5840;46.894;15.542;2024-03-23T16:33:23;1.03;;;0.70;;
11568;SDS011;5840;46.894;15.542;2024-03-23T16:36:00;1.70;;;0.67;;
11568;SDS011;5840;46.894;15.542;2024-03-23T16:38:27;2.10;;;0.70;;
11568;SDS011;5840;46.894;15.542;2024-03-23T16:48:24;1.80;;;1.40;;
11568;SDS011;5840;46.894;15.542;2024-03-23T16:50:51;1.17;;;1.17;;
11568;SDS011;5840;46.894;15.542;2024-03-23T16:53:17;1.00;;;1.00;;
11568;SDS011;5840;46.894;15.542;2024-03-23T16:55:44;0.80;;;0.80;;
11568;SDS011;5840;46.894;15.542;2024-03-23T16:58:10;3.40;;;0.80;;
11568;SDS011;5840;46.894;15.542;2024-03-23T17:00:37;0.90;;;0.90;;
11568;SDS011;5840;46.894;15.542;2024-03-23T17:03:03;1.00;;;1.00;;
11568;SDS011;5840;46.894;15.542;2024-03-23T17:05:36;0.70;;;0.70;;
11568;SDS011;5840;46.894;15.542;2024-03-23T17:13:01;0.90;;;0.83;;
11568;SDS011;5840;46.894;15.542;2024-03-23T17:15:27;0.80;;;0.80;;
11568;SDS011;5840;46.894;15.542;2024-03-23T17:17:53;0.60;;;0.60;;
11568;SDS011;5840;46.894;15.542;2024-03-23T17:20:19;0.90;;;0.90;;
11568;SDS011;5840;46.894;15.542;2024-03-23T17:22:45;0.80;;;0.80;;
11568;SDS011;5840;46.894;15.542;2024-03-23T17:25:18;1.37;;;1.17;;
11568;SDS011;5840;46.894;15.542;2024-03-23T17:27:44;1.27;;;1.03;;
11568;SDS011;5840;46.894;15.542;2024-03-23T17:30:12;1.00;;;1.00;;
11568;SDS011;5840;46.894;15.542;2024-03-23T17:37:43;1.50;;;1.40;;
11568;SDS011;5840;46.894;15.542;2024-03-23T17:40:10;1.00;;;1.00;;
11568;SDS011;5840;46.894;15.542;2024-03-23T17:42:37;2.03;;;1.00;;
11568;SDS011;5840;46.894;15.542;2024-03-23T17:45:04;1.17;;;1.07;;
11568;SDS011;5840;46.894;15.542;2024-03-23T17:47:35;1.17;;;1.07;;
11568;SDS011;5840;46.894;15.542;2024-03-23T17:50:01;1.40;;;1.10;;
11568;SDS011;5840;46.894;15.542;2024-03-23T17:52:28;1.13;;;1.13;;
11568;SDS011;5840;46.894;15.542;2024-03-23T17:57:32;2.23;;;1.43;;
11568;SDS011;5840;46.894;15.542;2024-03-23T17:59:58;1.60;;;1.50;;
11568;SDS011;5840;46.894;15.542;2024-03-23T18:02:24;1.47;;;1.37;;
11568;SDS011;5840;46.894;15.542;2024-03-23T18:04:51;1.40;;;1.30;;
11568;SDS011;5840;46.894;15.542;2024-03-23T18:07:17;1.77;;;1.67;;
11568;SDS011;5840;46.894;15.542;2024-03-23T18:09:43;1.87;;;1.77;;
11568;SDS011;5840;46.894;15.542;2024-03-23T18:12:09;1.23;;;1.20;;
11568;SDS011;5840;46.894;15.542;2024-03-23T18:14:37;1.50;;;1.50;;
11568;SDS011;5840;46.894;15.542;2024-03-23T18:22:11;1.70;;;1.60;;
11568;SDS011;5840;46.894;15.542;2024-03-23T18:24:38;1.37;;;1.37;;
11568;SDS011;5840;46.894;15.542;2024-03-23T18:27:04;3.47;;;1.80;;
11568;SDS011;5840;46.894;15.542;2024-03-23T18:29:30;1.60;;;1.50;;
11568;SDS011;5840;46.894;15.542;2024-03-23T18:31:57;2.13;;;1.93;;
11568;SDS011;5840;46.894;15.542;2024-03-23T18:34:23;1.30;;;1.30;;
11568;SDS011;5840;46.894;15.542;2024-03-23T18:36:49;1.60;;;1.50;;
11568;SDS011;5840;46.894;15.542;2024-03-23T18:39:16;1.70;;;1.60;;
11568;SDS011;5840;46.894;15.542;2024-03-23T18:49:06;2.17;;;1.97;;
11568;SDS011;5840;46.894;15.542;2024-03-23T18:51:32;2.23;;;2.03;;
11568;SDS011;5840;46.894;15.542;2024-03-23T18:53:59;2.47;;;1.90;;
11568;SDS011;5840;46.894;15.542;2024-03-23T18:56:26;1.73;;;1.70;;
11568;SDS011;5840;46.894;15.542;2024-03-23T18:58:53;2.10;;;1.90;;
11568;SDS011;5840;46.894;15.542;2024-03-23T19:01:20;2.00;;;1.90;;
11568;SDS011;5840;46.894;15.542;2024-03-23T19:03:46;1.90;;;1.80;;
11568;SDS011;5840;46.894;15.542;2024-03-23T19:06:13;2.00;;;1.80;;
11568;SDS011;5840;46.894;15.542;2024-03-23T19:16:07;3.70;;;3.40;;
11568;SDS011;5840;46.894;15.542;2024-03-23T19:18:34;5.20;;;4.90;;
11568;SDS011;5840;46.894;15.542;2024-03-23T19:21:00;2.90;;;2.70;;
11568;SDS011;5840;46.894;15.542;2024-03-23T19:23:27;3.30;;;3.10;;
11568;SDS011;5840;46.894;15.542;2024-03-23T19:25:54;2.33;;;1.80;;
11568;SDS011;5840;46.894;15.542;2024-03-23T19:28:21;2.60;;;2.50;;
11568;SDS011;5840;46.894;15.542;2024-03-23T19:30:47;1.80;;;1.70;;
11568;SDS011;5840;46.894;15.542;2024-03-23T19:35:56;1.40;;;1.40;;
11568;SDS011;5840;46.894;15.542;2024-03-23T19:38:22;1.30;;;1.20;;
11568;SDS011;5840;46.894;15.542;2024-03-23T19:40:52;1.40;;;1.40;;
11568;SDS011;5840;46.894;15.542;2024-03-23T19:43:19;1.50;;;1.50;;
11568;SDS011;5840;46.894;15.542;2024-03-23T19:45:45;1.50;;;1.47;;
11568;SDS011;5840;46.894;15.542;2024-03-23T19:48:11;1.57;;;1.53;;
11568;SDS011;5840;46.894;15.542;2024-03-23T19:50:37;1.80;;;1.70;;
11568;SDS011;5840;46.894;15.542;2024-03-23T19:53:04;1.50;;;1.43;;
11568;SDS011;5840;46.894;15.542;2024-03-23T20:00:34;1.90;;;1.80;;
11568;SDS011;5840;46.894;15.542;2024-03-23T20:03:00;1.93;;;1.80;;
11568;SDS011;5840;46.894;15.542;2024-03-23T20:05:31;1.77;;;1.67;;
11568;SDS011;5840;46.894;15.542;2024-03-23T20:07:57;2.30;;;2.10;;